<?xml version="1.0" encoding="UTF-8" standalone="no" ?>
<gpx xmlns="http://www.topografix.com/GPX/1/1" xmlns:xsi="http://www.w3.org/2001/XMLSchema-instance" xsi:schemaLocation="http://www.topografix.com/GPX/1/1 http://www.topografix.com/GPX/1/1/gpx.xsd" version="1.1" creator="VisuGPX - https://www.visugpx.com">
  <metadata>
    <name>La Chartreuse de la Verne 13 km à reconnaitre</name>
    <desc><![CDATA[Rando prévue le 30 mai, à reconnaitre]]></desc>
  </metadata>
  <trk>
    <name><![CDATA[Les Crêtes de La Chartreuse de la Verne]]></name>
    <trkseg>
      <trkpt lat="43.23469" lon="6.39996">
        <ele>429</ele>
        <time>2017-02-09T11:02:28+01:00</time>
      </trkpt>
      <trkpt lat="43.23442" lon="6.39966">
        <ele>439</ele>
        <time>2017-02-09T11:02:33+01:00</time>
      </trkpt>
      <trkpt lat="43.23424" lon="6.3993">
        <ele>444</ele>
        <time>2017-02-09T11:02:38+01:00</time>
      </trkpt>
      <trkpt lat="43.23444" lon="6.39828">
        <ele>440</ele>
        <time>2017-02-09T11:02:43+01:00</time>
      </trkpt>
      <trkpt lat="43.23431" lon="6.39716">
        <ele>451</ele>
        <time>2017-02-09T11:02:48+01:00</time>
      </trkpt>
      <trkpt lat="43.23389" lon="6.39693">
        <ele>462</ele>
        <time>2017-02-09T11:02:53+01:00</time>
      </trkpt>
      <trkpt lat="43.2339" lon="6.39659">
        <ele>462</ele>
        <time>2017-02-09T11:02:58+01:00</time>
      </trkpt>
      <trkpt lat="43.23331" lon="6.39507">
        <ele>476</ele>
        <time>2017-02-09T11:03:03+01:00</time>
      </trkpt>
      <trkpt lat="43.23265" lon="6.39443">
        <ele>488</ele>
        <time>2017-02-09T11:03:08+01:00</time>
      </trkpt>
      <trkpt lat="43.2322" lon="6.39446">
        <ele>495</ele>
        <time>2017-02-09T11:03:13+01:00</time>
      </trkpt>
      <trkpt lat="43.23222" lon="6.39398">
        <ele>493</ele>
        <time>2017-02-09T11:03:18+01:00</time>
      </trkpt>
      <trkpt lat="43.23167" lon="6.39355">
        <ele>500</ele>
        <time>2017-02-09T11:03:23+01:00</time>
      </trkpt>
      <trkpt lat="43.23163" lon="6.39325">
        <ele>500</ele>
        <time>2017-02-09T11:03:28+01:00</time>
      </trkpt>
      <trkpt lat="43.23136" lon="6.39324">
        <ele>506</ele>
        <time>2017-02-09T11:03:33+01:00</time>
      </trkpt>
      <trkpt lat="43.23089" lon="6.3918">
        <ele>516</ele>
        <time>2017-02-09T11:03:38+01:00</time>
      </trkpt>
      <trkpt lat="43.23079" lon="6.39141">
        <ele>516</ele>
        <time>2017-02-09T11:03:43+01:00</time>
      </trkpt>
      <trkpt lat="43.23075" lon="6.39163">
        <ele>516</ele>
        <time>2017-02-09T11:03:48+01:00</time>
      </trkpt>
      <trkpt lat="43.23003" lon="6.39157">
        <ele>516</ele>
        <time>2017-02-09T11:03:53+01:00</time>
      </trkpt>
      <trkpt lat="43.22907" lon="6.3913">
        <ele>518</ele>
        <time>2017-02-09T11:03:58+01:00</time>
      </trkpt>
      <trkpt lat="43.22878" lon="6.39098">
        <ele>511</ele>
        <time>2017-02-09T11:04:03+01:00</time>
      </trkpt>
      <trkpt lat="43.22845" lon="6.39091">
        <ele>513</ele>
        <time>2017-02-09T11:04:08+01:00</time>
      </trkpt>
      <trkpt lat="43.22824" lon="6.39102">
        <ele>518</ele>
        <time>2017-02-09T11:04:13+01:00</time>
      </trkpt>
      <trkpt lat="43.22795" lon="6.39102">
        <ele>517</ele>
        <time>2017-02-09T11:04:18+01:00</time>
      </trkpt>
      <trkpt lat="43.22744" lon="6.39117">
        <ele>521</ele>
        <time>2017-02-09T11:04:23+01:00</time>
      </trkpt>
      <trkpt lat="43.22677" lon="6.39093">
        <ele>520</ele>
        <time>2017-02-09T11:04:28+01:00</time>
      </trkpt>
      <trkpt lat="43.2265" lon="6.391">
        <ele>526</ele>
        <time>2017-02-09T11:04:33+01:00</time>
      </trkpt>
      <trkpt lat="43.22632" lon="6.3912">
        <ele>534</ele>
        <time>2017-02-09T11:04:38+01:00</time>
      </trkpt>
      <trkpt lat="43.2261" lon="6.39121">
        <ele>537</ele>
        <time>2017-02-09T11:04:43+01:00</time>
      </trkpt>
      <trkpt lat="43.22594" lon="6.39092">
        <ele>534</ele>
        <time>2017-02-09T11:04:48+01:00</time>
      </trkpt>
      <trkpt lat="43.22592" lon="6.39029">
        <ele>522</ele>
        <time>2017-02-09T11:04:53+01:00</time>
      </trkpt>
      <trkpt lat="43.2254" lon="6.38954">
        <ele>518</ele>
        <time>2017-02-09T11:04:58+01:00</time>
      </trkpt>
      <trkpt lat="43.22511" lon="6.38945">
        <ele>521</ele>
        <time>2017-02-09T11:05:03+01:00</time>
      </trkpt>
      <trkpt lat="43.22477" lon="6.38916">
        <ele>515</ele>
        <time>2017-02-09T11:05:08+01:00</time>
      </trkpt>
      <trkpt lat="43.22443" lon="6.38913">
        <ele>512</ele>
        <time>2017-02-09T11:05:13+01:00</time>
      </trkpt>
      <trkpt lat="43.22391" lon="6.38938">
        <ele>509</ele>
        <time>2017-02-09T11:05:18+01:00</time>
      </trkpt>
      <trkpt lat="43.22362" lon="6.38993">
        <ele>510</ele>
        <time>2017-02-09T11:05:23+01:00</time>
      </trkpt>
      <trkpt lat="43.2236" lon="6.39067">
        <ele>521</ele>
        <time>2017-02-09T11:05:28+01:00</time>
      </trkpt>
      <trkpt lat="43.2234" lon="6.39156">
        <ele>528</ele>
        <time>2017-02-09T11:05:33+01:00</time>
      </trkpt>
      <trkpt lat="43.22294" lon="6.39181">
        <ele>523</ele>
        <time>2017-02-09T11:05:38+01:00</time>
      </trkpt>
      <trkpt lat="43.22234" lon="6.39235">
        <ele>523</ele>
        <time>2017-02-09T11:05:43+01:00</time>
      </trkpt>
      <trkpt lat="43.2217" lon="6.39251">
        <ele>526</ele>
        <time>2017-02-09T11:05:48+01:00</time>
      </trkpt>
      <trkpt lat="43.22112" lon="6.39256">
        <ele>527</ele>
        <time>2017-02-09T11:05:53+01:00</time>
      </trkpt>
      <trkpt lat="43.22055" lon="6.39205">
        <ele>530</ele>
        <time>2017-02-09T11:05:58+01:00</time>
      </trkpt>
      <trkpt lat="43.22018" lon="6.39138">
        <ele>528</ele>
        <time>2017-02-09T11:06:03+01:00</time>
      </trkpt>
      <trkpt lat="43.21965" lon="6.39058">
        <ele>525</ele>
        <time>2017-02-09T11:06:08+01:00</time>
      </trkpt>
      <trkpt lat="43.21936" lon="6.39032">
        <ele>523</ele>
        <time>2017-02-09T11:06:13+01:00</time>
      </trkpt>
      <trkpt lat="43.21889" lon="6.39033">
        <ele>518</ele>
        <time>2017-02-09T11:06:18+01:00</time>
      </trkpt>
      <trkpt lat="43.21821" lon="6.39133">
        <ele>492</ele>
        <time>2017-02-09T11:06:23+01:00</time>
      </trkpt>
      <trkpt lat="43.21789" lon="6.39141">
        <ele>480</ele>
        <time>2017-02-09T11:06:28+01:00</time>
      </trkpt>
      <trkpt lat="43.21765" lon="6.39123">
        <ele>476</ele>
        <time>2017-02-09T11:06:33+01:00</time>
      </trkpt>
      <trkpt lat="43.21759" lon="6.39103">
        <ele>479</ele>
        <time>2017-02-09T11:06:38+01:00</time>
      </trkpt>
      <trkpt lat="43.21689" lon="6.39053">
        <ele>472</ele>
        <time>2017-02-09T11:06:43+01:00</time>
      </trkpt>
      <trkpt lat="43.2161" lon="6.39054">
        <ele>450</ele>
        <time>2017-02-09T11:06:48+01:00</time>
      </trkpt>
      <trkpt lat="43.21588" lon="6.39071">
        <ele>444</ele>
        <time>2017-02-09T11:06:53+01:00</time>
      </trkpt>
      <trkpt lat="43.21574" lon="6.39053">
        <ele>442</ele>
        <time>2017-02-09T11:06:58+01:00</time>
      </trkpt>
      <trkpt lat="43.21545" lon="6.39068">
        <ele>435</ele>
        <time>2017-02-09T11:07:03+01:00</time>
      </trkpt>
      <trkpt lat="43.21518" lon="6.39106">
        <ele>427</ele>
        <time>2017-02-09T11:07:08+01:00</time>
      </trkpt>
      <trkpt lat="43.21473" lon="6.39122">
        <ele>421</ele>
        <time>2017-02-09T11:07:13+01:00</time>
      </trkpt>
      <trkpt lat="43.21435" lon="6.39109">
        <ele>417</ele>
        <time>2017-02-09T11:07:18+01:00</time>
      </trkpt>
      <trkpt lat="43.21399" lon="6.39052">
        <ele>408</ele>
        <time>2017-02-09T11:07:23+01:00</time>
      </trkpt>
      <trkpt lat="43.21369" lon="6.38989">
        <ele>400</ele>
        <time>2017-02-09T11:07:28+01:00</time>
      </trkpt>
      <trkpt lat="43.21337" lon="6.38935">
        <ele>390</ele>
        <time>2017-02-09T11:07:33+01:00</time>
      </trkpt>
      <trkpt lat="43.21304" lon="6.3885">
        <ele>380</ele>
        <time>2017-02-09T11:07:38+01:00</time>
      </trkpt>
      <trkpt lat="43.21274" lon="6.38767">
        <ele>373</ele>
        <time>2017-02-09T11:07:43+01:00</time>
      </trkpt>
      <trkpt lat="43.21265" lon="6.38693">
        <ele>365</ele>
        <time>2017-02-09T11:07:48+01:00</time>
      </trkpt>
      <trkpt lat="43.21263" lon="6.38679">
        <ele>363</ele>
        <time>2017-02-09T11:07:53+01:00</time>
      </trkpt>
      <trkpt lat="43.21291" lon="6.38638">
        <ele>365</ele>
        <time>2017-02-09T11:07:58+01:00</time>
      </trkpt>
      <trkpt lat="43.21305" lon="6.38584">
        <ele>361</ele>
        <time>2017-02-09T11:08:03+01:00</time>
      </trkpt>
      <trkpt lat="43.21269" lon="6.38496">
        <ele>345</ele>
        <time>2017-02-09T11:08:08+01:00</time>
      </trkpt>
      <trkpt lat="43.21249" lon="6.38458">
        <ele>337</ele>
        <time>2017-02-09T11:08:13+01:00</time>
      </trkpt>
      <trkpt lat="43.2123" lon="6.38454">
        <ele>334</ele>
        <time>2017-02-09T11:08:18+01:00</time>
      </trkpt>
      <trkpt lat="43.21219" lon="6.38416">
        <ele>330</ele>
        <time>2017-02-09T11:08:23+01:00</time>
      </trkpt>
      <trkpt lat="43.21194" lon="6.38387">
        <ele>328</ele>
        <time>2017-02-09T11:08:28+01:00</time>
      </trkpt>
      <trkpt lat="43.21137" lon="6.3836">
        <ele>319</ele>
        <time>2017-02-09T11:08:33+01:00</time>
      </trkpt>
      <trkpt lat="43.21103" lon="6.38364">
        <ele>315</ele>
        <time>2017-02-09T11:08:38+01:00</time>
      </trkpt>
      <trkpt lat="43.21072" lon="6.38343">
        <ele>311</ele>
        <time>2017-02-09T11:08:43+01:00</time>
      </trkpt>
      <trkpt lat="43.2102" lon="6.38342">
        <ele>307</ele>
        <time>2017-02-09T11:08:48+01:00</time>
      </trkpt>
      <trkpt lat="43.21059" lon="6.38272">
        <ele>310</ele>
        <time>2017-02-09T11:08:53+01:00</time>
      </trkpt>
      <trkpt lat="43.21036" lon="6.38226">
        <ele>307</ele>
        <time>2017-02-09T11:08:58+01:00</time>
      </trkpt>
      <trkpt lat="43.21036" lon="6.38062">
        <ele>308</ele>
        <time>2017-02-09T11:09:03+01:00</time>
      </trkpt>
      <trkpt lat="43.21002" lon="6.38022">
        <ele>300</ele>
        <time>2017-02-09T11:09:08+01:00</time>
      </trkpt>
      <trkpt lat="43.20986" lon="6.37965">
        <ele>299</ele>
        <time>2017-02-09T11:09:13+01:00</time>
      </trkpt>
      <trkpt lat="43.20971" lon="6.3792">
        <ele>298</ele>
        <time>2017-02-09T11:09:18+01:00</time>
      </trkpt>
      <trkpt lat="43.20957" lon="6.37829">
        <ele>292</ele>
        <time>2017-02-09T11:09:23+01:00</time>
      </trkpt>
      <trkpt lat="43.20936" lon="6.37819">
        <ele>287</ele>
        <time>2017-02-09T11:09:28+01:00</time>
      </trkpt>
      <trkpt lat="43.20909" lon="6.37826">
        <ele>281</ele>
        <time>2017-02-09T11:09:33+01:00</time>
      </trkpt>
      <trkpt lat="43.20893" lon="6.37867">
        <ele>280</ele>
        <time>2017-02-09T11:09:38+01:00</time>
      </trkpt>
      <trkpt lat="43.2085" lon="6.37893">
        <ele>276</ele>
        <time>2017-02-09T11:09:43+01:00</time>
      </trkpt>
      <trkpt lat="43.20801" lon="6.37916">
        <ele>271</ele>
        <time>2017-02-09T11:09:48+01:00</time>
      </trkpt>
      <trkpt lat="43.20756" lon="6.37925">
        <ele>267</ele>
        <time>2017-02-09T11:09:53+01:00</time>
      </trkpt>
      <trkpt lat="43.20717" lon="6.37939">
        <ele>262</ele>
        <time>2017-02-09T11:09:58+01:00</time>
      </trkpt>
      <trkpt lat="43.20709" lon="6.37993">
        <ele>259</ele>
        <time>2017-02-09T11:10:03+01:00</time>
      </trkpt>
      <trkpt lat="43.20688" lon="6.38002">
        <ele>257</ele>
        <time>2017-02-09T11:10:08+01:00</time>
      </trkpt>
      <trkpt lat="43.20671" lon="6.3796">
        <ele>255</ele>
        <time>2017-02-09T11:10:13+01:00</time>
      </trkpt>
      <trkpt lat="43.20662" lon="6.38015">
        <ele>255</ele>
        <time>2017-02-09T11:10:18+01:00</time>
      </trkpt>
      <trkpt lat="43.20623" lon="6.37934">
        <ele>256</ele>
        <time>2017-02-09T11:10:23+01:00</time>
      </trkpt>
      <trkpt lat="43.20579" lon="6.37892">
        <ele>253</ele>
        <time>2017-02-09T11:10:28+01:00</time>
      </trkpt>
      <trkpt lat="43.2053" lon="6.37804">
        <ele>256</ele>
        <time>2017-02-09T11:10:33+01:00</time>
      </trkpt>
      <trkpt lat="43.20527" lon="6.37791">
        <ele>255</ele>
        <time>2017-02-09T11:10:38+01:00</time>
      </trkpt>
      <trkpt lat="43.20524" lon="6.37777">
        <ele>253</ele>
        <time>2017-02-09T11:10:43+01:00</time>
      </trkpt>
      <trkpt lat="43.20553" lon="6.37716">
        <ele>242</ele>
        <time>2017-02-09T11:10:48+01:00</time>
      </trkpt>
      <trkpt lat="43.20525" lon="6.3768">
        <ele>239</ele>
        <time>2017-02-09T11:10:53+01:00</time>
      </trkpt>
      <trkpt lat="43.20496" lon="6.37672">
        <ele>237</ele>
        <time>2017-02-09T11:10:58+01:00</time>
      </trkpt>
      <trkpt lat="43.20451" lon="6.3765">
        <ele>226</ele>
        <time>2017-02-09T11:11:03+01:00</time>
      </trkpt>
      <trkpt lat="43.20464" lon="6.37643">
        <ele>228</ele>
        <time>2017-02-09T11:11:08+01:00</time>
      </trkpt>
      <trkpt lat="43.20509" lon="6.37646">
        <ele>235</ele>
        <time>2017-02-09T11:11:13+01:00</time>
      </trkpt>
      <trkpt lat="43.20479" lon="6.37618">
        <ele>228</ele>
        <time>2017-02-09T11:11:18+01:00</time>
      </trkpt>
      <trkpt lat="43.20507" lon="6.37643">
        <ele>235</ele>
        <time>2017-02-09T11:11:23+01:00</time>
      </trkpt>
      <trkpt lat="43.20461" lon="6.37644">
        <ele>227</ele>
        <time>2017-02-09T11:11:28+01:00</time>
      </trkpt>
      <trkpt lat="43.20449" lon="6.37648">
        <ele>226</ele>
        <time>2017-02-09T11:11:33+01:00</time>
      </trkpt>
      <trkpt lat="43.20527" lon="6.37686">
        <ele>240</ele>
        <time>2017-02-09T11:11:38+01:00</time>
      </trkpt>
      <trkpt lat="43.20553" lon="6.37716">
        <ele>242</ele>
        <time>2017-02-09T11:11:43+01:00</time>
      </trkpt>
      <trkpt lat="43.20527" lon="6.37768">
        <ele>252</ele>
        <time>2017-02-09T11:11:48+01:00</time>
      </trkpt>
      <trkpt lat="43.20519" lon="6.37867">
        <ele>265</ele>
        <time>2017-02-09T11:11:53+01:00</time>
      </trkpt>
      <trkpt lat="43.20537" lon="6.37893">
        <ele>264</ele>
        <time>2017-02-09T11:11:58+01:00</time>
      </trkpt>
      <trkpt lat="43.20557" lon="6.37954">
        <ele>267</ele>
        <time>2017-02-09T11:12:03+01:00</time>
      </trkpt>
      <trkpt lat="43.20588" lon="6.38019">
        <ele>267</ele>
        <time>2017-02-09T11:12:08+01:00</time>
      </trkpt>
      <trkpt lat="43.20577" lon="6.38099">
        <ele>273</ele>
        <time>2017-02-09T11:12:13+01:00</time>
      </trkpt>
      <trkpt lat="43.20548" lon="6.3817">
        <ele>279</ele>
        <time>2017-02-09T11:12:18+01:00</time>
      </trkpt>
      <trkpt lat="43.20549" lon="6.38296">
        <ele>282</ele>
        <time>2017-02-09T11:12:23+01:00</time>
      </trkpt>
      <trkpt lat="43.20594" lon="6.38316">
        <ele>283</ele>
        <time>2017-02-09T11:12:28+01:00</time>
      </trkpt>
      <trkpt lat="43.20602" lon="6.38329">
        <ele>284</ele>
        <time>2017-02-09T11:12:33+01:00</time>
      </trkpt>
      <trkpt lat="43.20613" lon="6.38384">
        <ele>282</ele>
        <time>2017-02-09T11:12:38+01:00</time>
      </trkpt>
      <trkpt lat="43.20674" lon="6.38429">
        <ele>286</ele>
        <time>2017-02-09T11:12:43+01:00</time>
      </trkpt>
      <trkpt lat="43.20715" lon="6.38475">
        <ele>287</ele>
        <time>2017-02-09T11:12:48+01:00</time>
      </trkpt>
      <trkpt lat="43.20723" lon="6.38499">
        <ele>288</ele>
        <time>2017-02-09T11:12:53+01:00</time>
      </trkpt>
      <trkpt lat="43.20775" lon="6.38547">
        <ele>292</ele>
        <time>2017-02-09T11:12:58+01:00</time>
      </trkpt>
      <trkpt lat="43.20799" lon="6.38637">
        <ele>297</ele>
        <time>2017-02-09T11:13:03+01:00</time>
      </trkpt>
      <trkpt lat="43.20827" lon="6.38723">
        <ele>301</ele>
        <time>2017-02-09T11:13:08+01:00</time>
      </trkpt>
      <trkpt lat="43.20856" lon="6.38779">
        <ele>304</ele>
        <time>2017-02-09T11:13:13+01:00</time>
      </trkpt>
      <trkpt lat="43.20932" lon="6.38866">
        <ele>316</ele>
        <time>2017-02-09T11:13:18+01:00</time>
      </trkpt>
      <trkpt lat="43.20971" lon="6.38972">
        <ele>319</ele>
        <time>2017-02-09T11:13:23+01:00</time>
      </trkpt>
      <trkpt lat="43.21009" lon="6.39078">
        <ele>319</ele>
        <time>2017-02-09T11:13:28+01:00</time>
      </trkpt>
      <trkpt lat="43.21052" lon="6.39144">
        <ele>326</ele>
        <time>2017-02-09T11:13:33+01:00</time>
      </trkpt>
      <trkpt lat="43.21093" lon="6.39207">
        <ele>330</ele>
        <time>2017-02-09T11:13:38+01:00</time>
      </trkpt>
      <trkpt lat="43.21194" lon="6.39236">
        <ele>348</ele>
        <time>2017-02-09T11:13:43+01:00</time>
      </trkpt>
      <trkpt lat="43.21229" lon="6.39279">
        <ele>346</ele>
        <time>2017-02-09T11:13:48+01:00</time>
      </trkpt>
      <trkpt lat="43.21272" lon="6.39301">
        <ele>352</ele>
        <time>2017-02-09T11:13:53+01:00</time>
      </trkpt>
      <trkpt lat="43.21317" lon="6.39363">
        <ele>350</ele>
        <time>2017-02-09T11:13:58+01:00</time>
      </trkpt>
      <trkpt lat="43.21383" lon="6.39398">
        <ele>353</ele>
        <time>2017-02-09T11:14:03+01:00</time>
      </trkpt>
      <trkpt lat="43.21458" lon="6.39402">
        <ele>363</ele>
        <time>2017-02-09T11:14:08+01:00</time>
      </trkpt>
      <trkpt lat="43.2154" lon="6.39356">
        <ele>384</ele>
        <time>2017-02-09T11:14:13+01:00</time>
      </trkpt>
      <trkpt lat="43.21527" lon="6.39479">
        <ele>369</ele>
        <time>2017-02-09T11:14:18+01:00</time>
      </trkpt>
      <trkpt lat="43.21613" lon="6.3958">
        <ele>381</ele>
        <time>2017-02-09T11:14:23+01:00</time>
      </trkpt>
      <trkpt lat="43.21667" lon="6.39613">
        <ele>384</ele>
        <time>2017-02-09T11:14:28+01:00</time>
      </trkpt>
      <trkpt lat="43.21743" lon="6.39602">
        <ele>402</ele>
        <time>2017-02-09T11:14:33+01:00</time>
      </trkpt>
      <trkpt lat="43.21793" lon="6.39638">
        <ele>403</ele>
        <time>2017-02-09T11:14:38+01:00</time>
      </trkpt>
      <trkpt lat="43.21857" lon="6.39653">
        <ele>418</ele>
        <time>2017-02-09T11:14:43+01:00</time>
      </trkpt>
      <trkpt lat="43.21871" lon="6.39689">
        <ele>413</ele>
        <time>2017-02-09T11:14:48+01:00</time>
      </trkpt>
      <trkpt lat="43.219" lon="6.39712">
        <ele>419</ele>
        <time>2017-02-09T11:14:53+01:00</time>
      </trkpt>
      <trkpt lat="43.21941" lon="6.39856">
        <ele>406</ele>
        <time>2017-02-09T11:14:58+01:00</time>
      </trkpt>
      <trkpt lat="43.21958" lon="6.3987">
        <ele>407</ele>
        <time>2017-02-09T11:15:03+01:00</time>
      </trkpt>
      <trkpt lat="43.21996" lon="6.3986">
        <ele>418</ele>
        <time>2017-02-09T11:15:08+01:00</time>
      </trkpt>
      <trkpt lat="43.2201" lon="6.39872">
        <ele>416</ele>
        <time>2017-02-09T11:15:13+01:00</time>
      </trkpt>
      <trkpt lat="43.22035" lon="6.39867">
        <ele>418</ele>
        <time>2017-02-09T11:15:18+01:00</time>
      </trkpt>
      <trkpt lat="43.22094" lon="6.3979">
        <ele>439</ele>
        <time>2017-02-09T11:15:23+01:00</time>
      </trkpt>
      <trkpt lat="43.22185" lon="6.39747">
        <ele>448</ele>
        <time>2017-02-09T11:15:28+01:00</time>
      </trkpt>
      <trkpt lat="43.22238" lon="6.39764">
        <ele>457</ele>
        <time>2017-02-09T11:15:33+01:00</time>
      </trkpt>
      <trkpt lat="43.22186" lon="6.39824">
        <ele>443</ele>
        <time>2017-02-09T11:15:38+01:00</time>
      </trkpt>
      <trkpt lat="43.22178" lon="6.39882">
        <ele>443</ele>
        <time>2017-02-09T11:15:43+01:00</time>
      </trkpt>
      <trkpt lat="43.22183" lon="6.39939">
        <ele>447</ele>
        <time>2017-02-09T11:15:48+01:00</time>
      </trkpt>
      <trkpt lat="43.22241" lon="6.39968">
        <ele>465</ele>
        <time>2017-02-09T11:15:53+01:00</time>
      </trkpt>
      <trkpt lat="43.2224" lon="6.3999">
        <ele>463</ele>
        <time>2017-02-09T11:15:58+01:00</time>
      </trkpt>
      <trkpt lat="43.22212" lon="6.40061">
        <ele>456</ele>
        <time>2017-02-09T11:16:03+01:00</time>
      </trkpt>
      <trkpt lat="43.22222" lon="6.40088">
        <ele>458</ele>
        <time>2017-02-09T11:16:08+01:00</time>
      </trkpt>
      <trkpt lat="43.2228" lon="6.40124">
        <ele>473</ele>
        <time>2017-02-09T11:16:13+01:00</time>
      </trkpt>
      <trkpt lat="43.22302" lon="6.40213">
        <ele>478</ele>
        <time>2017-02-09T11:16:18+01:00</time>
      </trkpt>
      <trkpt lat="43.22269" lon="6.40308">
        <ele>473</ele>
        <time>2017-02-09T11:16:23+01:00</time>
      </trkpt>
      <trkpt lat="43.22269" lon="6.40369">
        <ele>476</ele>
        <time>2017-02-09T11:16:28+01:00</time>
      </trkpt>
      <trkpt lat="43.22281" lon="6.40452">
        <ele>478</ele>
        <time>2017-02-09T11:16:33+01:00</time>
      </trkpt>
      <trkpt lat="43.22312" lon="6.40488">
        <ele>487</ele>
        <time>2017-02-09T11:16:38+01:00</time>
      </trkpt>
      <trkpt lat="43.2232" lon="6.40496">
        <ele>489</ele>
        <time>2017-02-09T11:16:43+01:00</time>
      </trkpt>
      <trkpt lat="43.22334" lon="6.40615">
        <ele>492</ele>
        <time>2017-02-09T11:16:48+01:00</time>
      </trkpt>
      <trkpt lat="43.22365" lon="6.40646">
        <ele>496</ele>
        <time>2017-02-09T11:16:53+01:00</time>
      </trkpt>
      <trkpt lat="43.22409" lon="6.40664">
        <ele>500</ele>
        <time>2017-02-09T11:16:58+01:00</time>
      </trkpt>
      <trkpt lat="43.22437" lon="6.4071">
        <ele>502</ele>
        <time>2017-02-09T11:17:03+01:00</time>
      </trkpt>
      <trkpt lat="43.22436" lon="6.40746">
        <ele>501</ele>
        <time>2017-02-09T11:17:08+01:00</time>
      </trkpt>
      <trkpt lat="43.22427" lon="6.40769">
        <ele>501</ele>
        <time>2017-02-09T11:17:13+01:00</time>
      </trkpt>
      <trkpt lat="43.2242" lon="6.40825">
        <ele>503</ele>
        <time>2017-02-09T11:17:18+01:00</time>
      </trkpt>
      <trkpt lat="43.22467" lon="6.4082">
        <ele>503</ele>
        <time>2017-02-09T11:17:23+01:00</time>
      </trkpt>
      <trkpt lat="43.225" lon="6.40894">
        <ele>490</ele>
        <time>2017-02-09T11:17:28+01:00</time>
      </trkpt>
      <trkpt lat="43.22642" lon="6.4093">
        <ele>480</ele>
        <time>2017-02-09T11:17:33+01:00</time>
      </trkpt>
      <trkpt lat="43.22706" lon="6.40883">
        <ele>474</ele>
        <time>2017-02-09T11:17:38+01:00</time>
      </trkpt>
      <trkpt lat="43.22698" lon="6.40778">
        <ele>477</ele>
        <time>2017-02-09T11:17:43+01:00</time>
      </trkpt>
      <trkpt lat="43.22668" lon="6.40625">
        <ele>486</ele>
        <time>2017-02-09T11:17:48+01:00</time>
      </trkpt>
      <trkpt lat="43.22675" lon="6.40618">
        <ele>485</ele>
        <time>2017-02-09T11:17:53+01:00</time>
      </trkpt>
      <trkpt lat="43.22722" lon="6.40616">
        <ele>478</ele>
        <time>2017-02-09T11:17:58+01:00</time>
      </trkpt>
      <trkpt lat="43.22799" lon="6.40627">
        <ele>471</ele>
        <time>2017-02-09T11:18:03+01:00</time>
      </trkpt>
      <trkpt lat="43.22861" lon="6.40659">
        <ele>462</ele>
        <time>2017-02-09T11:18:08+01:00</time>
      </trkpt>
      <trkpt lat="43.22951" lon="6.40702">
        <ele>444</ele>
        <time>2017-02-09T11:18:13+01:00</time>
      </trkpt>
      <trkpt lat="43.22966" lon="6.40682">
        <ele>448</ele>
        <time>2017-02-09T11:18:18+01:00</time>
      </trkpt>
      <trkpt lat="43.22987" lon="6.40567">
        <ele>469</ele>
        <time>2017-02-09T11:18:23+01:00</time>
      </trkpt>
      <trkpt lat="43.22996" lon="6.40503">
        <ele>479</ele>
        <time>2017-02-09T11:18:28+01:00</time>
      </trkpt>
      <trkpt lat="43.23014" lon="6.4052">
        <ele>478</ele>
        <time>2017-02-09T11:18:33+01:00</time>
      </trkpt>
      <trkpt lat="43.23041" lon="6.40561">
        <ele>474</ele>
        <time>2017-02-09T11:18:38+01:00</time>
      </trkpt>
      <trkpt lat="43.23069" lon="6.40632">
        <ele>458</ele>
        <time>2017-02-09T11:18:43+01:00</time>
      </trkpt>
      <trkpt lat="43.23112" lon="6.40678">
        <ele>452</ele>
        <time>2017-02-09T11:18:48+01:00</time>
      </trkpt>
      <trkpt lat="43.23191" lon="6.40719">
        <ele>454</ele>
        <time>2017-02-09T11:18:53+01:00</time>
      </trkpt>
      <trkpt lat="43.23236" lon="6.4078">
        <ele>449</ele>
        <time>2017-02-09T11:18:58+01:00</time>
      </trkpt>
      <trkpt lat="43.23274" lon="6.40873">
        <ele>440</ele>
        <time>2017-02-09T11:19:03+01:00</time>
      </trkpt>
      <trkpt lat="43.23328" lon="6.4092">
        <ele>443</ele>
        <time>2017-02-09T11:19:08+01:00</time>
      </trkpt>
      <trkpt lat="43.23375" lon="6.40934">
        <ele>435</ele>
        <time>2017-02-09T11:19:13+01:00</time>
      </trkpt>
      <trkpt lat="43.23425" lon="6.40887">
        <ele>437</ele>
        <time>2017-02-09T11:19:18+01:00</time>
      </trkpt>
      <trkpt lat="43.23443" lon="6.40875">
        <ele>433</ele>
        <time>2017-02-09T11:19:23+01:00</time>
      </trkpt>
      <trkpt lat="43.23449" lon="6.40843">
        <ele>434</ele>
        <time>2017-02-09T11:19:28+01:00</time>
      </trkpt>
      <trkpt lat="43.23443" lon="6.40823">
        <ele>436</ele>
        <time>2017-02-09T11:19:33+01:00</time>
      </trkpt>
      <trkpt lat="43.23422" lon="6.40758">
        <ele>434</ele>
        <time>2017-02-09T11:19:38+01:00</time>
      </trkpt>
      <trkpt lat="43.23374" lon="6.40704">
        <ele>434</ele>
        <time>2017-02-09T11:19:43+01:00</time>
      </trkpt>
      <trkpt lat="43.23319" lon="6.40663">
        <ele>441</ele>
        <time>2017-02-09T11:19:48+01:00</time>
      </trkpt>
      <trkpt lat="43.23309" lon="6.40588">
        <ele>438</ele>
        <time>2017-02-09T11:19:53+01:00</time>
      </trkpt>
      <trkpt lat="43.23315" lon="6.40518">
        <ele>440</ele>
        <time>2017-02-09T11:19:58+01:00</time>
      </trkpt>
      <trkpt lat="43.23344" lon="6.40434">
        <ele>435</ele>
        <time>2017-02-09T11:20:03+01:00</time>
      </trkpt>
      <trkpt lat="43.23347" lon="6.40383">
        <ele>437</ele>
        <time>2017-02-09T11:20:08+01:00</time>
      </trkpt>
      <trkpt lat="43.23354" lon="6.40259">
        <ele>441</ele>
        <time>2017-02-09T11:20:13+01:00</time>
      </trkpt>
      <trkpt lat="43.23348" lon="6.4023">
        <ele>449</ele>
        <time>2017-02-09T11:20:18+01:00</time>
      </trkpt>
      <trkpt lat="43.23374" lon="6.40199">
        <ele>445</ele>
        <time>2017-02-09T11:20:23+01:00</time>
      </trkpt>
      <trkpt lat="43.23412" lon="6.40171">
        <ele>438</ele>
        <time>2017-02-09T11:20:28+01:00</time>
      </trkpt>
      <trkpt lat="43.23499" lon="6.40151">
        <ele>418</ele>
        <time>2017-02-09T11:20:33+01:00</time>
      </trkpt>
      <trkpt lat="43.23504" lon="6.40099">
        <ele>424</ele>
        <time>2017-02-09T11:20:38+01:00</time>
      </trkpt>
      <trkpt lat="43.23493" lon="6.40051">
        <ele>425</ele>
        <time>2017-02-09T11:20:43+01:00</time>
      </trkpt>
      <trkpt lat="43.23476" lon="6.40019">
        <ele>428</ele>
        <time>2017-02-09T11:20:48+01:00</time>
      </trkpt>
      <trkpt lat="43.23462" lon="6.3999">
        <ele>431</ele>
        <time>2017-02-09T11:20:53+01:00</time>
      </trkpt>
      <trkpt lat="43.23471" lon="6.40001">
        <ele>428</ele>
        <time>2017-02-09T11:20:58+01:00</time>
      </trkpt>
    </trkseg>
  </trk>
</gpx>